createdAt,value
2022-12-15T00:00:20.318Z,24.48
2022-12-15T00:03:06.011Z,20.88
2022-12-15T00:05:51.422Z,21.48
2022-12-15T00:08:36.802Z,20.90
2022-12-15T00:11:22.199Z,20.80
2022-12-15T00:14:07.713Z,20.50
2022-12-15T00:16:52.778Z,24.10
2022-12-15T00:19:37.890Z,22.27
2022-12-15T00:22:23.876Z,22.33
2022-12-15T00:25:08.987Z,24.88
2022-12-15T00:27:54.024Z,26.40
2022-12-15T00:30:39.424Z,25.73
2022-12-15T00:33:31.392Z,24.15
2022-12-15T00:36:17.765Z,22.63
2022-12-15T00:38:44.971Z,27.17
2022-12-15T00:41:13.476Z,25.40
2022-12-15T00:43:40.089Z,26.45
2022-12-15T00:46:26.699Z,25.67
2022-12-15T00:48:53.333Z,25.30
2022-12-15T00:51:20.456Z,27.30
2022-12-15T00:54:06.760Z,26.85
2022-12-15T00:56:51.999Z,24.02
2022-12-15T00:59:36.824Z,25.50
2022-12-15T01:02:23.077Z,24.98
2022-12-15T01:05:08.271Z,25.83
2022-12-15T01:07:53.788Z,25.60
2022-12-15T01:10:38.615Z,26.10
2022-12-15T01:13:24.590Z,26.88
2022-12-15T01:16:10.015Z,25.65
2022-12-15T01:18:55.553Z,25.42
2022-12-15T01:21:25.024Z,24.45
2022-12-15T01:23:52.297Z,25.58
2022-12-15T01:26:19.551Z,24.63
2022-12-15T01:28:46.144Z,24.30
2022-12-15T01:31:12.996Z,23.63
2022-12-15T01:33:40.053Z,22.42
2022-12-15T01:36:07.237Z,24.05
2022-12-15T01:38:33.870Z,23.33
2022-12-15T01:41:07.459Z,21.23
2022-12-15T01:43:37.473Z,20.75
2022-12-15T01:46:05.916Z,21.17
2022-12-15T01:49:15.422Z,22.65
2022-12-15T01:51:48.773Z,22.40
2022-12-15T01:54:21.018Z,23.27
2022-12-15T01:56:52.719Z,23.80
2022-12-15T01:59:25.068Z,21.00
2022-12-15T02:01:51.950Z,24.48
2022-12-15T02:04:22.890Z,24.58
2022-12-15T02:06:50.002Z,22.25
2022-12-15T02:09:19.331Z,21.88
2022-12-15T02:11:46.099Z,22.42
2022-12-15T02:14:20.434Z,22.02
2022-12-15T02:17:08.812Z,23.42
2022-12-15T02:20:02.421Z,24.42
2022-12-15T02:23:10.684Z,24.30
2022-12-15T02:25:38.363Z,22.48
2022-12-15T02:28:08.529Z,25.33
2022-12-15T02:30:35.097Z,24.60
2022-12-15T02:33:04.899Z,25.02
2022-12-15T02:35:41.033Z,21.70
2022-12-15T02:38:09.385Z,23.35
2022-12-15T02:40:37.002Z,22.20
2022-12-15T02:43:06.471Z,22.33
2022-12-15T02:45:46.189Z,24.27
2022-12-15T02:48:27.410Z,21.55
2022-12-15T02:50:53.941Z,22.77
2022-12-15T02:53:46.717Z,22.60
2022-12-15T02:56:53.515Z,23.05
2022-12-15T02:59:38.003Z,21.48
2022-12-15T03:02:08.924Z,22.38
2022-12-15T03:04:35.848Z,21.48
2022-12-15T03:07:06.299Z,21.55
2022-12-15T03:09:33.250Z,21.73
2022-12-15T03:12:00.596Z,21.50
2022-12-15T03:14:27.976Z,23.83
2022-12-15T03:16:55.588Z,22.70
2022-12-15T03:19:22.661Z,22.35
2022-12-15T03:21:49.390Z,22.25
2022-12-15T03:24:15.996Z,22.65
2022-12-15T03:26:43.867Z,23.02
2022-12-15T03:29:10.499Z,22.60
2022-12-15T03:31:37.151Z,23.23
2022-12-15T03:34:03.823Z,20.45
2022-12-15T03:36:30.380Z,22.50
2022-12-15T03:38:57.012Z,22.50
2022-12-15T03:41:23.602Z,21.60
2022-12-15T03:43:50.434Z,21.95
2022-12-15T03:46:17.251Z,21.23
2022-12-15T03:48:44.013Z,21.60
2022-12-15T03:51:10.673Z,21.38
2022-12-15T03:53:37.392Z,21.55
2022-12-15T03:56:04.411Z,22.38
2022-12-15T03:58:31.089Z,22.27
2022-12-15T04:00:57.792Z,21.10
2022-12-15T04:03:24.622Z,21.48
2022-12-15T04:05:51.408Z,22.80
2022-12-15T04:08:18.088Z,21.30
2022-12-15T04:10:44.688Z,21.85
2022-12-15T04:13:11.991Z,22.05
2022-12-15T04:15:40.232Z,23.88
2022-12-15T04:18:10.187Z,22.97
2022-12-15T04:20:38.167Z,25.10
2022-12-15T04:23:07.828Z,22.67
2022-12-15T04:25:54.319Z,23.08
2022-12-15T04:28:39.680Z,22.52
2022-12-15T04:31:33.633Z,22.58
2022-12-15T04:34:22.907Z,23.02
2022-12-15T04:37:11.177Z,22.17
2022-12-15T04:39:59.425Z,24.20
2022-12-15T04:42:45.859Z,24.38
2022-12-15T04:45:34.214Z,22.00
2022-12-15T04:48:19.601Z,23.42
2022-12-15T04:51:04.910Z,22.17
2022-12-15T04:53:50.005Z,22.10
2022-12-15T04:56:35.420Z,22.95
2022-12-15T04:59:20.919Z,22.50
2022-12-15T05:02:06.994Z,23.52
2022-12-15T05:04:52.664Z,23.75
2022-12-15T05:07:38.316Z,22.77
2022-12-15T05:10:25.147Z,23.13
2022-12-15T05:13:10.455Z,21.88
2022-12-15T05:15:55.723Z,22.38
2022-12-15T05:18:40.936Z,21.65
2022-12-15T05:21:26.770Z,21.00
2022-12-15T05:24:11.964Z,20.42
2022-12-15T05:26:57.283Z,22.23
2022-12-15T05:29:42.552Z,21.42
2022-12-15T05:32:09.333Z,19.52
2022-12-15T05:34:37.309Z,21.83
2022-12-15T05:37:05.242Z,23.50
2022-12-15T05:39:31.876Z,22.50
2022-12-15T05:41:58.743Z,21.63
2022-12-15T05:44:26.138Z,20.98
2022-12-15T05:46:53.173Z,21.40
2022-12-15T05:49:20.308Z,21.42
2022-12-15T05:51:48.391Z,23.38
2022-12-15T05:54:18.151Z,20.30
2022-12-15T05:56:45.935Z,21.63
2022-12-15T05:59:13.070Z,22.75
2022-12-15T06:01:40.295Z,22.85
2022-12-15T06:04:11.392Z,22.75
2022-12-15T06:06:38.839Z,23.85
2022-12-15T06:09:05.771Z,22.77
2022-12-15T06:11:38.695Z,22.98
2022-12-15T06:14:05.472Z,22.25
2022-12-15T06:16:33.199Z,22.48
2022-12-15T06:19:02.005Z,20.00
2022-12-15T06:21:32.102Z,20.90
2022-12-15T06:23:59.267Z,21.23
2022-12-15T06:26:32.075Z,21.95
2022-12-15T06:29:02.670Z,21.02
2022-12-15T06:31:34.082Z,21.83
2022-12-15T06:34:04.381Z,23.02
2022-12-15T06:36:31.480Z,22.70
2022-12-15T06:39:04.349Z,22.95
2022-12-15T06:41:32.031Z,22.00
2022-12-15T06:44:00.098Z,22.33
2022-12-15T06:46:28.855Z,23.93
2022-12-15T06:48:59.214Z,22.00
2022-12-15T06:51:26.771Z,22.08
2022-12-15T06:53:56.848Z,24.73
2022-12-15T06:56:33.648Z,23.42
2022-12-15T06:59:03.425Z,24.05
2022-12-15T07:04:00.455Z,22.00
2022-12-15T07:06:29.636Z,23.23
2022-12-15T07:08:59.342Z,20.38
2022-12-15T07:11:26.170Z,22.27
2022-12-15T07:13:54.140Z,24.30
2022-12-15T07:16:23.468Z,24.55
2022-12-15T07:18:50.739Z,23.23
2022-12-15T07:21:18.043Z,22.35
2022-12-15T07:23:57.933Z,22.42
2022-12-15T07:26:25.587Z,25.10
2022-12-15T07:28:54.148Z,25.13
2022-12-15T07:31:22.045Z,24.45
2022-12-15T07:33:49.565Z,22.85
2022-12-15T07:36:16.623Z,23.48
2022-12-15T07:38:50.109Z,22.27
2022-12-15T07:41:18.766Z,22.20
2022-12-15T07:43:46.793Z,20.52
2022-12-15T07:46:13.947Z,20.17
2022-12-15T07:48:43.888Z,20.67
2022-12-15T07:51:19.795Z,21.85
2022-12-15T07:53:50.340Z,21.20
2022-12-15T07:56:20.355Z,20.67
2022-12-15T07:58:51.204Z,53.53
2022-12-15T08:01:18.119Z,23.70
2022-12-15T08:03:48.330Z,22.65
2022-12-15T08:06:18.607Z,21.88
2022-12-15T08:08:50.063Z,22.13
2022-12-15T08:11:23.452Z,20.63
2022-12-15T08:14:10.607Z,22.85
2022-12-15T08:16:40.987Z,20.77
2022-12-15T08:19:12.402Z,25.08
2022-12-15T08:21:43.761Z,23.83
2022-12-15T08:24:10.798Z,27.58
2022-12-15T08:26:38.549Z,25.88
2022-12-15T08:29:40.569Z,23.27
2022-12-15T08:31:54.919Z,21.95
2022-12-15T08:34:22.174Z,25.23
2022-12-15T08:36:49.280Z,24.65
2022-12-15T08:39:16.626Z,23.25
2022-12-15T08:41:44.030Z,22.98
2022-12-15T08:44:10.933Z,23.88
2022-12-15T08:46:37.848Z,22.15
2022-12-15T08:49:04.922Z,22.75
2022-12-15T08:51:33.324Z,23.90
2022-12-15T08:54:01.460Z,24.25
2022-12-15T08:56:29.441Z,25.08
2022-12-15T08:59:02.068Z,22.48
2022-12-15T09:01:33.171Z,23.73
2022-12-15T09:04:01.673Z,25.42
2022-12-15T09:06:32.289Z,25.20
2022-12-15T09:09:02.519Z,24.45
2022-12-15T09:11:30.532Z,24.52
2022-12-15T09:13:58.455Z,23.92
2022-12-15T09:16:25.696Z,26.08
2022-12-15T09:18:55.262Z,23.92
2022-12-15T09:21:26.181Z,26.15
2022-12-15T09:23:55.393Z,24.38
2022-12-15T09:26:23.617Z,24.08
2022-12-15T09:28:51.218Z,22.93
2022-12-15T09:31:28.673Z,22.17
2022-12-15T09:33:58.180Z,23.92
2022-12-15T09:36:25.851Z,27.00
2022-12-15T09:38:52.895Z,25.10
2022-12-15T09:41:28.492Z,27.50
2022-12-15T09:44:04.188Z,27.13
2022-12-15T09:46:51.043Z,27.40
2022-12-15T09:49:23.922Z,22.63
2022-12-15T09:52:10.445Z,24.83
2022-12-15T09:54:38.853Z,25.20
2022-12-15T09:57:28.776Z,24.65
2022-12-15T10:00:22.003Z,24.73
2022-12-15T10:03:02.485Z,24.35
2022-12-15T10:06:23.890Z,24.30
2022-12-15T10:09:10.175Z,24.83
2022-12-15T10:11:51.797Z,23.42
2022-12-15T10:14:24.427Z,22.58
2022-12-15T10:17:06.987Z,22.02
2022-12-15T10:19:36.662Z,25.45
2022-12-15T10:22:03.597Z,26.80
2022-12-15T10:25:08.058Z,28.73
2022-12-15T10:27:40.819Z,27.50
2022-12-15T10:30:12.796Z,24.15
2022-12-15T10:32:57.073Z,24.48
2022-12-15T10:35:29.732Z,25.63
2022-12-15T10:38:00.030Z,25.38
2022-12-15T10:40:58.854Z,24.20
2022-12-15T10:43:30.734Z,22.23
2022-12-15T10:46:14.533Z,24.55
2022-12-15T10:48:43.362Z,25.33
2022-12-15T10:51:44.509Z,24.38
2022-12-15T10:54:16.452Z,25.63
2022-12-15T10:56:51.075Z,25.20
2022-12-15T10:59:37.185Z,27.70
2022-12-15T11:02:34.393Z,26.23
2022-12-15T11:05:02.758Z,25.55
2022-12-15T11:07:48.248Z,27.90
2022-12-15T11:10:48.899Z,31.67
2022-12-15T11:13:19.110Z,25.30
2022-12-15T11:15:51.875Z,26.33
2022-12-15T11:18:18.512Z,27.88
2022-12-15T11:20:52.798Z,27.02
2022-12-15T11:23:53.084Z,25.27
2022-12-15T11:26:45.250Z,26.90
2022-12-15T11:29:27.219Z,24.38
2022-12-15T11:31:56.514Z,26.13
2022-12-15T11:34:36.675Z,26.23
2022-12-15T11:37:34.021Z,25.08
2022-12-15T11:40:21.443Z,26.40
2022-12-15T11:42:54.019Z,25.25
2022-12-15T11:45:27.465Z,25.88
2022-12-15T11:48:12.281Z,26.05
2022-12-15T11:50:59.013Z,25.60
2022-12-15T11:53:41.445Z,27.38
2022-12-15T11:56:23.931Z,24.73
2022-12-15T11:59:09.467Z,25.92
2022-12-15T12:02:00.668Z,26.27
2022-12-15T12:04:48.608Z,25.38
2022-12-15T12:07:58.020Z,23.63
2022-12-15T12:10:44.819Z,24.95
2022-12-15T12:13:23.299Z,20.75
2022-12-15T12:16:09.505Z,22.63
2022-12-15T12:18:42.466Z,21.65
2022-12-15T12:21:39.502Z,22.80
2022-12-15T12:24:14.475Z,21.90
2022-12-15T12:26:56.986Z,21.83
2022-12-15T12:29:35.975Z,21.02
2022-12-15T12:32:24.411Z,20.98
2022-12-15T12:35:31.600Z,21.20
2022-12-15T12:38:04.096Z,20.45
2022-12-15T12:41:10.502Z,22.42
2022-12-15T12:43:50.508Z,20.83
2022-12-15T12:46:29.753Z,20.55
2022-12-15T12:49:04.319Z,18.17
2022-12-15T12:51:38.507Z,20.52
2022-12-15T12:54:37.255Z,20.35
2022-12-15T12:57:13.268Z,20.92
2022-12-15T12:59:51.159Z,20.23
2022-12-15T13:02:21.578Z,20.83
2022-12-15T13:05:22.341Z,20.63
2022-12-15T13:08:06.829Z,20.77
2022-12-15T13:10:40.782Z,19.25
2022-12-15T13:13:16.340Z,19.13
2022-12-15T13:15:46.614Z,18.67
2022-12-15T13:18:24.252Z,18.58
2022-12-15T13:20:55.426Z,19.13
2022-12-15T13:23:21.991Z,20.20
2022-12-15T13:25:57.641Z,21.33
2022-12-15T13:28:39.099Z,20.23
2022-12-15T13:31:19.257Z,20.38
2022-12-15T13:33:49.664Z,21.13
2022-12-15T13:36:38.307Z,21.10
2022-12-15T13:39:27.462Z,21.58
2022-12-15T13:44:54.857Z,21.80
2022-12-15T13:47:29.774Z,22.45
2022-12-15T13:50:22.627Z,20.80
2022-12-15T13:53:18.957Z,20.35
2022-12-15T13:55:52.542Z,21.75
2022-12-15T14:00:58.296Z,21.90
2022-12-15T14:03:29.254Z,21.77
2022-12-15T14:05:58.588Z,23.42
2022-12-15T14:08:29.490Z,22.45
2022-12-15T14:10:59.138Z,22.25
2022-12-15T14:13:25.679Z,22.95
2022-12-15T14:16:03.128Z,22.20
2022-12-15T14:18:31.288Z,22.55
2022-12-15T14:20:59.521Z,22.27
2022-12-15T14:23:38.638Z,22.00
2022-12-15T14:26:07.609Z,22.92
2022-12-15T14:28:36.755Z,25.50
2022-12-15T14:31:16.787Z,26.48
2022-12-15T14:33:46.895Z,24.73
2022-12-15T14:36:20.587Z,26.27
2022-12-15T14:39:06.651Z,26.05
2022-12-15T14:41:34.514Z,25.63
2022-12-15T14:44:36.632Z,25.58
2022-12-15T14:47:07.476Z,22.35
2022-12-15T14:49:43.712Z,25.75
2022-12-15T14:52:27.532Z,24.65
2022-12-15T14:54:57.903Z,25.70
2022-12-15T14:57:43.852Z,24.90
2022-12-15T15:00:50.928Z,28.00
2022-12-15T15:05:59.986Z,26.65
2022-12-15T15:08:36.249Z,26.60
2022-12-15T15:11:44.733Z,28.05
2022-12-15T15:14:20.566Z,29.70
2022-12-15T15:17:00.727Z,29.83
2022-12-15T15:19:28.051Z,30.85
2022-12-15T15:21:54.770Z,31.33
2022-12-15T15:24:39.632Z,28.65
2022-12-15T15:27:32.996Z,30.83
2022-12-15T15:30:16.968Z,31.60
2022-12-15T15:32:58.281Z,31.67
2022-12-15T15:35:34.174Z,28.50
2022-12-15T15:38:31.153Z,30.33
2022-12-15T15:41:11.696Z,30.02
2022-12-15T15:43:38.303Z,29.13
2022-12-15T15:46:10.509Z,27.38
2022-12-15T15:48:41.795Z,30.77
2022-12-15T15:51:08.426Z,29.73
2022-12-15T15:53:35.790Z,31.92
2022-12-15T15:56:08.199Z,29.30
2022-12-15T15:58:36.388Z,30.42
2022-12-15T16:01:09.546Z,29.42
2022-12-15T16:03:39.617Z,29.35
2022-12-15T16:06:14.194Z,31.65
2022-12-15T16:08:40.961Z,31.00
2022-12-15T16:11:11.152Z,31.88
2022-12-15T16:13:37.902Z,33.17
2022-12-15T16:16:05.647Z,33.03
2022-12-15T16:18:32.812Z,31.88
2022-12-15T16:20:59.756Z,32.78
2022-12-15T16:23:28.764Z,30.33
2022-12-15T16:25:58.456Z,30.52
2022-12-15T16:28:28.249Z,30.25
2022-12-15T16:30:55.650Z,30.95
2022-12-15T16:33:24.065Z,30.95
2022-12-15T16:35:51.349Z,30.45
2022-12-15T16:38:25.777Z,33.05
2022-12-15T16:40:53.013Z,31.67
2022-12-15T16:43:24.394Z,31.77
2022-12-15T16:45:53.155Z,31.95
2022-12-15T16:48:20.825Z,33.15
2022-12-15T16:50:52.138Z,32.67
2022-12-15T16:53:27.941Z,31.45
2022-12-15T16:55:59.608Z,34.80
2022-12-15T16:58:27.952Z,34.10
2022-12-15T17:00:55.167Z,41.67
2022-12-15T17:03:25.731Z,37.60
2022-12-15T17:05:55.587Z,38.83
2022-12-15T17:08:50.571Z,37.83
2022-12-15T17:11:21.640Z,37.10
2022-12-15T17:13:51.402Z,36.88
2022-12-15T17:16:19.702Z,37.80
2022-12-15T17:18:46.370Z,40.90
2022-12-15T17:21:29.253Z,37.67
2022-12-15T17:24:00.689Z,39.13
2022-12-15T17:26:30.730Z,38.50
2022-12-15T17:29:01.535Z,37.60
2022-12-15T17:31:34.877Z,37.20
2022-12-15T17:34:30.212Z,37.05
2022-12-15T17:36:59.365Z,33.53
2022-12-15T17:39:27.329Z,33.30
2022-12-15T17:42:02.730Z,33.80
2022-12-15T17:44:35.493Z,35.10
2022-12-15T17:47:05.511Z,33.00
2022-12-15T17:52:23.205Z,35.10
2022-12-15T17:54:51.511Z,35.67
2022-12-15T17:57:18.406Z,33.60
2022-12-15T17:59:45.043Z,35.35
2022-12-15T18:02:15.115Z,33.78
2022-12-15T18:04:42.545Z,34.80
2022-12-15T18:07:18.736Z,34.60
2022-12-15T18:09:46.046Z,33.40
2022-12-15T18:12:21.824Z,37.42
2022-12-15T18:14:48.632Z,36.30
2022-12-15T18:17:15.563Z,51.10
2022-12-15T18:19:42.193Z,43.15
2022-12-15T18:22:21.086Z,41.88
2022-12-15T18:24:49.069Z,40.70
2022-12-15T18:27:23.839Z,42.65
2022-12-15T18:29:50.780Z,39.15
2022-12-15T18:32:18.058Z,42.70
2022-12-15T18:34:45.050Z,38.92
2022-12-15T18:37:20.188Z,38.80
2022-12-15T18:39:47.321Z,39.65
2022-12-15T18:42:16.054Z,39.08
2022-12-15T18:44:48.289Z,38.97
2022-12-15T18:47:17.198Z,39.08
2022-12-15T18:49:43.954Z,38.92
2022-12-15T18:52:20.002Z,42.30
2022-12-15T18:54:48.614Z,40.80
2022-12-15T18:57:33.662Z,38.75
2022-12-15T19:00:07.907Z,38.63
2022-12-15T19:02:34.660Z,39.78
2022-12-15T19:05:01.435Z,40.45
2022-12-15T19:07:28.119Z,40.60
2022-12-15T19:09:55.035Z,39.20
2022-12-15T19:12:21.831Z,41.08
2022-12-15T19:14:50.688Z,38.67
2022-12-15T19:17:38.354Z,36.15
2022-12-15T19:20:31.820Z,38.20
2022-12-15T19:22:58.494Z,44.65
2022-12-15T19:25:29.105Z,40.33
2022-12-15T19:27:59.342Z,41.58
2022-12-15T19:30:29.723Z,41.03
2022-12-15T19:32:56.969Z,37.72
2022-12-15T19:35:24.835Z,41.13
2022-12-15T19:37:55.153Z,39.30
2022-12-15T19:40:28.196Z,39.13
2022-12-15T19:42:55.642Z,42.88
2022-12-15T19:45:26.855Z,39.88
2022-12-15T19:47:54.251Z,38.10
2022-12-15T19:50:29.291Z,38.92
2022-12-15T19:53:00.908Z,35.58
2022-12-15T19:55:33.992Z,36.53
2022-12-15T19:58:06.568Z,38.08
2022-12-15T20:00:33.232Z,39.40
2022-12-15T20:02:59.993Z,36.85
2022-12-15T20:05:26.811Z,39.20
2022-12-15T20:07:54.713Z,36.38
2022-12-15T20:10:29.316Z,35.67
2022-12-15T20:12:58.653Z,36.88
2022-12-15T20:15:26.254Z,37.72
2022-12-15T20:17:58.923Z,38.88
2022-12-15T20:20:27.765Z,38.13
2022-12-15T20:22:58.910Z,38.55
2022-12-15T20:25:37.849Z,39.22
2022-12-15T20:28:10.351Z,38.70
2022-12-15T20:30:37.135Z,36.92
2022-12-15T20:33:04.773Z,34.63
2022-12-15T20:35:34.672Z,36.63
2022-12-15T20:38:12.763Z,40.17
2022-12-15T20:40:39.451Z,40.38
2022-12-15T20:43:16.308Z,42.10
2022-12-15T20:45:44.048Z,39.03
2022-12-15T20:48:13.700Z,39.10
2022-12-15T20:50:48.877Z,35.60
2022-12-15T20:53:22.733Z,37.40
2022-12-15T20:55:50.628Z,37.47
2022-12-15T20:58:18.275Z,38.22
2022-12-15T21:00:46.447Z,36.67
2022-12-15T21:03:28.863Z,38.80
2022-12-15T21:05:57.960Z,37.85
2022-12-15T21:08:27.504Z,37.45
2022-12-15T21:10:56.483Z,39.22
2022-12-15T21:13:26.539Z,34.33
2022-12-15T21:15:54.274Z,34.95
2022-12-15T21:21:34.168Z,34.03
2022-12-15T21:24:02.863Z,33.25
2022-12-15T21:26:29.515Z,35.13
2022-12-15T21:28:59.398Z,32.97
2022-12-15T21:31:26.723Z,30.27
2022-12-15T21:33:53.670Z,30.88
2022-12-15T21:36:22.374Z,31.00
2022-12-15T21:38:51.875Z,34.78
2022-12-15T21:41:24.684Z,33.83
2022-12-15T21:43:51.339Z,34.47
2022-12-15T21:46:24.636Z,34.80
2022-12-15T21:49:14.362Z,34.97
2022-12-15T21:52:09.416Z,31.67
2022-12-15T21:54:36.659Z,31.98
2022-12-15T21:57:03.345Z,31.05
2022-12-15T21:59:31.990Z,32.97
2022-12-15T22:02:02.401Z,32.35
2022-12-15T22:04:34.658Z,33.33
2022-12-15T22:07:01.660Z,31.60
2022-12-15T22:09:28.794Z,35.05
2022-12-15T22:11:56.563Z,32.92
2022-12-15T22:14:33.177Z,32.78
2022-12-15T22:17:02.050Z,32.33
2022-12-15T22:19:28.741Z,35.65
2022-12-15T22:21:55.408Z,33.90
2022-12-15T22:24:22.170Z,34.03
2022-12-15T22:26:49.012Z,32.70
2022-12-15T22:29:21.700Z,34.60
2022-12-15T22:31:50.165Z,32.15
2022-12-15T22:34:23.025Z,33.72
2022-12-15T22:36:50.838Z,32.97
2022-12-15T22:39:18.942Z,36.58
2022-12-15T22:41:49.981Z,34.65
2022-12-15T22:44:21.813Z,32.33
2022-12-15T22:46:50.220Z,31.42
2022-12-15T22:49:23.351Z,34.05
2022-12-15T22:51:50.087Z,33.35
2022-12-15T22:54:28.923Z,32.75
2022-12-15T22:57:01.099Z,33.67
2022-12-15T22:59:35.257Z,32.83
2022-12-15T23:02:03.061Z,33.25
2022-12-15T23:04:30.714Z,32.22
2022-12-15T23:06:59.274Z,33.17
2022-12-15T23:09:26.068Z,31.90
2022-12-15T23:11:52.744Z,31.98
2022-12-15T23:14:44.819Z,31.95
2022-12-15T23:17:13.005Z,31.60
2022-12-15T23:19:44.441Z,31.67
2022-12-15T23:22:11.276Z,32.45
2022-12-15T23:24:37.964Z,31.73
2022-12-15T23:27:05.349Z,31.23
2022-12-15T23:29:32.294Z,33.83
2022-12-15T23:31:58.900Z,32.28
2022-12-15T23:34:25.674Z,33.08
2022-12-15T23:36:52.327Z,32.78
2022-12-15T23:39:19.059Z,31.92
2022-12-15T23:41:45.676Z,31.67
2022-12-15T23:44:12.519Z,30.30
2022-12-15T23:46:39.228Z,29.30
2022-12-15T23:49:06.902Z,29.60
2022-12-15T23:51:33.510Z,31.63
2022-12-15T23:54:00.128Z,29.02
2022-12-15T23:56:26.836Z,28.67
2022-12-15T23:58:58.837Z,27.48
